sensor_id;sensor_type;location;lat;lon;timestamp;P1;durP1;ratioP1;P2;durP2;ratioP2
6145;SDS011;3104;50.348;7.620;2023-02-08T00:00:38;23.00;;;12.00;;
6145;SDS011;3104;50.348;7.620;2023-02-08T00:03:04;17.60;;;11.07;;
6145;SDS011;3104;50.348;7.620;2023-02-08T00:05:30;23.53;;;12.30;;
6145;SDS011;3104;50.348;7.620;2023-02-08T00:07:55;10.70;;;7.60;;
6145;SDS011;3104;50.348;7.620;2023-02-08T00:10:21;8.90;;;7.40;;
6145;SDS011;3104;50.348;7.620;2023-02-08T00:12:46;8.00;;;6.87;;
6145;SDS011;3104;50.348;7.620;2023-02-08T00:15:12;9.13;;;7.03;;
6145;SDS011;3104;50.348;7.620;2023-02-08T00:17:38;8.47;;;6.70;;
6145;SDS011;3104;50.348;7.620;2023-02-08T00:20:03;10.37;;;7.40;;
6145;SDS011;3104;50.348;7.620;2023-02-08T00:22:30;6.77;;;6.00;;
6145;SDS011;3104;50.348;7.620;2023-02-08T00:24:56;8.27;;;6.80;;
6145;SDS011;3104;50.348;7.620;2023-02-08T00:27:22;10.00;;;7.13;;
6145;SDS011;3104;50.348;7.620;2023-02-08T00:29:47;11.13;;;7.80;;
6145;SDS011;3104;50.348;7.620;2023-02-08T00:32:13;10.77;;;6.97;;
6145;SDS011;3104;50.348;7.620;2023-02-08T00:34:38;11.80;;;8.33;;
6145;SDS011;3104;50.348;7.620;2023-02-08T00:37:05;11.27;;;7.97;;
6145;SDS011;3104;50.348;7.620;2023-02-08T00:39:30;14.77;;;8.63;;
6145;SDS011;3104;50.348;7.620;2023-02-08T00:41:56;12.50;;;9.00;;
6145;SDS011;3104;50.348;7.620;2023-02-08T00:44:22;11.80;;;8.13;;
6145;SDS011;3104;50.348;7.620;2023-02-08T00:46:48;9.67;;;7.90;;
6145;SDS011;3104;50.348;7.620;2023-02-08T00:49:13;8.63;;;7.47;;
6145;SDS011;3104;50.348;7.620;2023-02-08T00:51:39;10.37;;;7.00;;
6145;SDS011;3104;50.348;7.620;2023-02-08T00:54:04;8.40;;;6.83;;
6145;SDS011;3104;50.348;7.620;2023-02-08T00:56:30;9.33;;;7.30;;
6145;SDS011;3104;50.348;7.620;2023-02-08T00:58:55;9.50;;;7.73;;
6145;SDS011;3104;50.348;7.620;2023-02-08T01:01:21;9.40;;;7.50;;
6145;SDS011;3104;50.348;7.620;2023-02-08T01:03:47;10.13;;;6.37;;
6145;SDS011;3104;50.348;7.620;2023-02-08T01:06:14;8.37;;;7.47;;
6145;SDS011;3104;50.348;7.620;2023-02-08T01:08:41;7.87;;;6.30;;
6145;SDS011;3104;50.348;7.620;2023-02-08T01:11:11;9.10;;;7.70;;
6145;SDS011;3104;50.348;7.620;2023-02-08T01:13:39;8.93;;;7.30;;
6145;SDS011;3104;50.348;7.620;2023-02-08T01:16:09;8.77;;;6.97;;
6145;SDS011;3104;50.348;7.620;2023-02-08T01:18:37;8.33;;;7.43;;
6145;SDS011;3104;50.348;7.620;2023-02-08T01:21:05;12.43;;;7.93;;
6145;SDS011;3104;50.348;7.620;2023-02-08T01:23:31;8.63;;;7.43;;
6145;SDS011;3104;50.348;7.620;2023-02-08T01:25:56;10.10;;;7.87;;
6145;SDS011;3104;50.348;7.620;2023-02-08T01:28:22;9.50;;;7.40;;
6145;SDS011;3104;50.348;7.620;2023-02-08T01:30:48;11.57;;;7.77;;
6145;SDS011;3104;50.348;7.620;2023-02-08T01:33:13;8.57;;;7.73;;
6145;SDS011;3104;50.348;7.620;2023-02-08T01:35:39;17.30;;;8.27;;
6145;SDS011;3104;50.348;7.620;2023-02-08T01:38:04;10.47;;;7.40;;
6145;SDS011;3104;50.348;7.620;2023-02-08T01:40:30;8.10;;;7.10;;
6145;SDS011;3104;50.348;7.620;2023-02-08T01:42:55;12.43;;;8.93;;
6145;SDS011;3104;50.348;7.620;2023-02-08T01:45:28;9.50;;;8.17;;
6145;SDS011;3104;50.348;7.620;2023-02-08T01:48:17;11.07;;;7.83;;
6145;SDS011;3104;50.348;7.620;2023-02-08T01:50:51;11.17;;;7.57;;
6145;SDS011;3104;50.348;7.620;2023-02-08T01:53:33;9.07;;;6.67;;
6145;SDS011;3104;50.348;7.620;2023-02-08T01:56:04;10.10;;;7.63;;
6145;SDS011;3104;50.348;7.620;2023-02-08T01:58:33;11.23;;;8.03;;
6145;SDS011;3104;50.348;7.620;2023-02-08T02:01:03;14.50;;;7.97;;
6145;SDS011;3104;50.348;7.620;2023-02-08T02:03:29;9.63;;;7.60;;
6145;SDS011;3104;50.348;7.620;2023-02-08T02:05:56;9.83;;;7.60;;
6145;SDS011;3104;50.348;7.620;2023-02-08T02:08:27;7.77;;;7.07;;
6145;SDS011;3104;50.348;7.620;2023-02-08T02:10:52;10.57;;;7.80;;
6145;SDS011;3104;50.348;7.620;2023-02-08T02:13:19;10.73;;;7.40;;
6145;SDS011;3104;50.348;7.620;2023-02-08T02:15:46;9.90;;;8.10;;
6145;SDS011;3104;50.348;7.620;2023-02-08T02:18:28;13.40;;;8.60;;
6145;SDS011;3104;50.348;7.620;2023-02-08T02:21:09;13.70;;;10.13;;
6145;SDS011;3104;50.348;7.620;2023-02-08T02:32:03;10.47;;;8.07;;
6145;SDS011;3104;50.348;7.620;2023-02-08T02:34:44;11.70;;;7.20;;
6145;SDS011;3104;50.348;7.620;2023-02-08T02:39:52;12.20;;;8.57;;
6145;SDS011;3104;50.348;7.620;2023-02-08T02:42:55;10.40;;;8.27;;
6145;SDS011;3104;50.348;7.620;2023-02-08T02:46:01;9.77;;;8.40;;
6145;SDS011;3104;50.348;7.620;2023-02-08T02:54:06;10.70;;;7.63;;
6145;SDS011;3104;50.348;7.620;2023-02-08T02:56:43;12.23;;;8.67;;
6145;SDS011;3104;50.348;7.620;2023-02-08T02:59:11;12.10;;;8.40;;
6145;SDS011;3104;50.348;7.620;2023-02-08T03:01:39;10.93;;;7.80;;
6145;SDS011;3104;50.348;7.620;2023-02-08T03:04:46;10.00;;;7.90;;
6145;SDS011;3104;50.348;7.620;2023-02-08T03:07:24;8.60;;;7.70;;
6145;SDS011;3104;50.348;7.620;2023-02-08T03:16:01;9.97;;;8.43;;
6145;SDS011;3104;50.348;7.620;2023-02-08T03:18:50;12.37;;;9.10;;
6145;SDS011;3104;50.348;7.620;2023-02-08T03:26:59;10.53;;;8.30;;
6145;SDS011;3104;50.348;7.620;2023-02-08T03:33:17;14.10;;;9.80;;
6145;SDS011;3104;50.348;7.620;2023-02-08T03:35:33;9.60;;;7.80;;
6145;SDS011;3104;50.348;7.620;2023-02-08T03:38:20;10.23;;;8.03;;
6145;SDS011;3104;50.348;7.620;2023-02-08T03:40:51;10.43;;;7.33;;
6145;SDS011;3104;50.348;7.620;2023-02-08T03:43:24;10.60;;;7.87;;
6145;SDS011;3104;50.348;7.620;2023-02-08T03:46:17;10.13;;;7.97;;
6145;SDS011;3104;50.348;7.620;2023-02-08T03:48:53;10.73;;;8.10;;
6145;SDS011;3104;50.348;7.620;2023-02-08T03:51:23;10.93;;;8.80;;
6145;SDS011;3104;50.348;7.620;2023-02-08T03:53:51;13.00;;;9.50;;
6145;SDS011;3104;50.348;7.620;2023-02-08T03:56:23;9.13;;;7.80;;
6145;SDS011;3104;50.348;7.620;2023-02-08T03:59:03;11.43;;;8.77;;
6145;SDS011;3104;50.348;7.620;2023-02-08T04:01:37;9.50;;;8.17;;
6145;SDS011;3104;50.348;7.620;2023-02-08T04:04:08;13.07;;;9.47;;
6145;SDS011;3104;50.348;7.620;2023-02-08T04:06:35;9.47;;;8.03;;
6145;SDS011;3104;50.348;7.620;2023-02-08T04:09:00;11.33;;;8.67;;
6145;SDS011;3104;50.348;7.620;2023-02-08T04:11:26;11.73;;;8.43;;
6145;SDS011;3104;50.348;7.620;2023-02-08T04:13:51;12.73;;;8.00;;
6145;SDS011;3104;50.348;7.620;2023-02-08T04:16:17;9.43;;;8.00;;
6145;SDS011;3104;50.348;7.620;2023-02-08T04:18:42;10.33;;;8.17;;
6145;SDS011;3104;50.348;7.620;2023-02-08T04:21:08;9.30;;;8.10;;
6145;SDS011;3104;50.348;7.620;2023-02-08T04:23:34;11.40;;;8.40;;
6145;SDS011;3104;50.348;7.620;2023-02-08T04:25:59;13.97;;;10.63;;
6145;SDS011;3104;50.348;7.620;2023-02-08T04:28:25;12.33;;;7.90;;
6145;SDS011;3104;50.348;7.620;2023-02-08T04:30:50;11.43;;;8.77;;
6145;SDS011;3104;50.348;7.620;2023-02-08T04:33:19;13.33;;;9.13;;
6145;SDS011;3104;50.348;7.620;2023-02-08T04:35:44;9.50;;;8.10;;
6145;SDS011;3104;50.348;7.620;2023-02-08T04:38:10;11.83;;;9.03;;
6145;SDS011;3104;50.348;7.620;2023-02-08T04:40:35;9.63;;;7.80;;
6145;SDS011;3104;50.348;7.620;2023-02-08T04:43:01;10.53;;;8.50;;
6145;SDS011;3104;50.348;7.620;2023-02-08T04:45:27;10.60;;;8.43;;
6145;SDS011;3104;50.348;7.620;2023-02-08T04:47:55;12.00;;;9.07;;
6145;SDS011;3104;50.348;7.620;2023-02-08T04:50:21;10.67;;;9.03;;
6145;SDS011;3104;50.348;7.620;2023-02-08T04:52:47;9.67;;;7.80;;
6145;SDS011;3104;50.348;7.620;2023-02-08T04:55:13;9.83;;;8.30;;
6145;SDS011;3104;50.348;7.620;2023-02-08T04:57:38;10.60;;;8.40;;
6145;SDS011;3104;50.348;7.620;2023-02-08T05:00:04;9.87;;;7.53;;
6145;SDS011;3104;50.348;7.620;2023-02-08T05:02:30;8.63;;;7.67;;
6145;SDS011;3104;50.348;7.620;2023-02-08T05:04:55;10.73;;;8.10;;
6145;SDS011;3104;50.348;7.620;2023-02-08T05:07:21;9.93;;;8.20;;
6145;SDS011;3104;50.348;7.620;2023-02-08T05:09:46;12.00;;;8.10;;
6145;SDS011;3104;50.348;7.620;2023-02-08T05:12:12;9.93;;;7.43;;
6145;SDS011;3104;50.348;7.620;2023-02-08T05:14:38;10.33;;;8.60;;
6145;SDS011;3104;50.348;7.620;2023-02-08T05:17:03;10.07;;;8.23;;
6145;SDS011;3104;50.348;7.620;2023-02-08T05:19:29;10.37;;;8.43;;
6145;SDS011;3104;50.348;7.620;2023-02-08T05:21:54;9.97;;;8.97;;
6145;SDS011;3104;50.348;7.620;2023-02-08T05:24:20;19.47;;;9.57;;
6145;SDS011;3104;50.348;7.620;2023-02-08T05:26:46;10.30;;;8.73;;
6145;SDS011;3104;50.348;7.620;2023-02-08T05:29:11;12.90;;;8.10;;
6145;SDS011;3104;50.348;7.620;2023-02-08T05:31:37;13.13;;;8.40;;
6145;SDS011;3104;50.348;7.620;2023-02-08T05:34:03;9.63;;;7.93;;
6145;SDS011;3104;50.348;7.620;2023-02-08T05:36:28;11.17;;;8.20;;
6145;SDS011;3104;50.348;7.620;2023-02-08T05:38:54;14.07;;;8.47;;
6145;SDS011;3104;50.348;7.620;2023-02-08T05:41:20;10.20;;;8.53;;
6145;SDS011;3104;50.348;7.620;2023-02-08T05:43:45;11.87;;;8.30;;
6145;SDS011;3104;50.348;7.620;2023-02-08T05:46:11;8.43;;;7.13;;
6145;SDS011;3104;50.348;7.620;2023-02-08T05:48:37;10.63;;;8.07;;
6145;SDS011;3104;50.348;7.620;2023-02-08T05:51:03;12.83;;;9.70;;
6145;SDS011;3104;50.348;7.620;2023-02-08T05:53:29;11.30;;;9.17;;
6145;SDS011;3104;50.348;7.620;2023-02-08T05:55:55;16.17;;;10.20;;
6145;SDS011;3104;50.348;7.620;2023-02-08T05:58:22;11.60;;;9.03;;
6145;SDS011;3104;50.348;7.620;2023-02-08T06:00:48;10.17;;;8.37;;
6145;SDS011;3104;50.348;7.620;2023-02-08T06:03:14;8.30;;;7.50;;
6145;SDS011;3104;50.348;7.620;2023-02-08T06:05:40;11.07;;;9.00;;
6145;SDS011;3104;50.348;7.620;2023-02-08T06:08:07;11.10;;;9.00;;
6145;SDS011;3104;50.348;7.620;2023-02-08T06:10:33;10.47;;;7.90;;
6145;SDS011;3104;50.348;7.620;2023-02-08T06:12:59;9.90;;;8.57;;
6145;SDS011;3104;50.348;7.620;2023-02-08T06:15:25;19.33;;;16.13;;
6145;SDS011;3104;50.348;7.620;2023-02-08T06:17:51;15.13;;;11.37;;
6145;SDS011;3104;50.348;7.620;2023-02-08T06:20:17;12.00;;;10.33;;
6145;SDS011;3104;50.348;7.620;2023-02-08T06:22:43;10.57;;;8.10;;
6145;SDS011;3104;50.348;7.620;2023-02-08T06:25:09;9.80;;;8.10;;
6145;SDS011;3104;50.348;7.620;2023-02-08T06:27:34;11.00;;;9.63;;
6145;SDS011;3104;50.348;7.620;2023-02-08T06:30:00;18.73;;;17.03;;
6145;SDS011;3104;50.348;7.620;2023-02-08T06:32:25;11.10;;;10.10;;
6145;SDS011;3104;50.348;7.620;2023-02-08T06:34:51;11.83;;;9.40;;
6145;SDS011;3104;50.348;7.620;2023-02-08T06:37:17;12.50;;;11.17;;
6145;SDS011;3104;50.348;7.620;2023-02-08T06:39:43;14.00;;;9.20;;
6145;SDS011;3104;50.348;7.620;2023-02-08T06:42:09;13.57;;;12.37;;
6145;SDS011;3104;50.348;7.620;2023-02-08T06:44:36;10.87;;;9.87;;
6145;SDS011;3104;50.348;7.620;2023-02-08T06:47:02;15.00;;;13.43;;
6145;SDS011;3104;50.348;7.620;2023-02-08T06:49:28;10.50;;;9.03;;
6145;SDS011;3104;50.348;7.620;2023-02-08T06:51:53;10.13;;;8.70;;
6145;SDS011;3104;50.348;7.620;2023-02-08T06:54:19;10.53;;;9.07;;
6145;SDS011;3104;50.348;7.620;2023-02-08T06:56:45;11.83;;;8.70;;
6145;SDS011;3104;50.348;7.620;2023-02-08T06:59:10;10.87;;;8.30;;
6145;SDS011;3104;50.348;7.620;2023-02-08T07:01:36;12.53;;;8.97;;
6145;SDS011;3104;50.348;7.620;2023-02-08T07:04:02;12.00;;;8.50;;
6145;SDS011;3104;50.348;7.620;2023-02-08T07:06:27;12.13;;;8.27;;
6145;SDS011;3104;50.348;7.620;2023-02-08T07:08:53;11.80;;;8.87;;
6145;SDS011;3104;50.348;7.620;2023-02-08T07:11:19;11.30;;;7.90;;
6145;SDS011;3104;50.348;7.620;2023-02-08T07:13:45;10.63;;;8.70;;
6145;SDS011;3104;50.348;7.620;2023-02-08T07:16:12;10.73;;;9.60;;
6145;SDS011;3104;50.348;7.620;2023-02-08T07:18:38;12.87;;;9.27;;
6145;SDS011;3104;50.348;7.620;2023-02-08T07:21:03;12.47;;;8.87;;
6145;SDS011;3104;50.348;7.620;2023-02-08T07:23:29;12.73;;;9.70;;
6145;SDS011;3104;50.348;7.620;2023-02-08T07:25:56;16.90;;;9.20;;
6145;SDS011;3104;50.348;7.620;2023-02-08T07:28:22;12.10;;;9.27;;
6145;SDS011;3104;50.348;7.620;2023-02-08T07:30:48;16.90;;;9.43;;
6145;SDS011;3104;50.348;7.620;2023-02-08T07:33:14;12.43;;;10.03;;
6145;SDS011;3104;50.348;7.620;2023-02-08T07:35:39;12.90;;;9.47;;
6145;SDS011;3104;50.348;7.620;2023-02-08T07:38:05;12.03;;;9.90;;
6145;SDS011;3104;50.348;7.620;2023-02-08T07:40:30;12.93;;;10.10;;
6145;SDS011;3104;50.348;7.620;2023-02-08T07:42:56;14.90;;;10.40;;
6145;SDS011;3104;50.348;7.620;2023-02-08T07:45:21;13.60;;;10.03;;
6145;SDS011;3104;50.348;7.620;2023-02-08T07:47:47;13.93;;;10.53;;
6145;SDS011;3104;50.348;7.620;2023-02-08T07:50:13;15.93;;;10.80;;
6145;SDS011;3104;50.348;7.620;2023-02-08T07:52:40;14.67;;;10.17;;
6145;SDS011;3104;50.348;7.620;2023-02-08T07:55:08;13.50;;;11.30;;
6145;SDS011;3104;50.348;7.620;2023-02-08T07:57:35;14.40;;;11.20;;
6145;SDS011;3104;50.348;7.620;2023-02-08T08:00:02;12.13;;;10.20;;
6145;SDS011;3104;50.348;7.620;2023-02-08T08:02:28;13.83;;;10.30;;
6145;SDS011;3104;50.348;7.620;2023-02-08T08:04:53;14.53;;;10.60;;
6145;SDS011;3104;50.348;7.620;2023-02-08T08:07:19;13.70;;;10.73;;
6145;SDS011;3104;50.348;7.620;2023-02-08T08:09:44;15.57;;;10.50;;
6145;SDS011;3104;50.348;7.620;2023-02-08T08:12:10;15.10;;;10.47;;
6145;SDS011;3104;50.348;7.620;2023-02-08T08:14:35;23.50;;;17.90;;
6145;SDS011;3104;50.348;7.620;2023-02-08T08:17:01;16.47;;;12.03;;
6145;SDS011;3104;50.348;7.620;2023-02-08T08:19:26;11.87;;;10.67;;
6145;SDS011;3104;50.348;7.620;2023-02-08T08:21:52;15.40;;;10.67;;
6145;SDS011;3104;50.348;7.620;2023-02-08T08:24:18;13.30;;;9.70;;
6145;SDS011;3104;50.348;7.620;2023-02-08T08:26:43;13.20;;;9.63;;
6145;SDS011;3104;50.348;7.620;2023-02-08T08:29:09;12.13;;;10.03;;
6145;SDS011;3104;50.348;7.620;2023-02-08T08:31:34;11.70;;;9.27;;
6145;SDS011;3104;50.348;7.620;2023-02-08T08:34:00;13.50;;;10.00;;
6145;SDS011;3104;50.348;7.620;2023-02-08T08:36:26;13.37;;;9.87;;
6145;SDS011;3104;50.348;7.620;2023-02-08T08:38:51;12.60;;;10.43;;
6145;SDS011;3104;50.348;7.620;2023-02-08T08:41:17;11.70;;;8.90;;
6145;SDS011;3104;50.348;7.620;2023-02-08T08:43:43;20.53;;;13.50;;
6145;SDS011;3104;50.348;7.620;2023-02-08T08:46:09;15.97;;;10.60;;
6145;SDS011;3104;50.348;7.620;2023-02-08T08:48:36;31.03;;;22.77;;
6145;SDS011;3104;50.348;7.620;2023-02-08T08:51:02;12.43;;;10.20;;
6145;SDS011;3104;50.348;7.620;2023-02-08T08:53:29;15.07;;;11.10;;
6145;SDS011;3104;50.348;7.620;2023-02-08T08:55:54;15.00;;;10.33;;
6145;SDS011;3104;50.348;7.620;2023-02-08T08:58:20;13.17;;;10.20;;
6145;SDS011;3104;50.348;7.620;2023-02-08T09:00:45;14.20;;;11.00;;
6145;SDS011;3104;50.348;7.620;2023-02-08T09:03:11;10.20;;;8.70;;
6145;SDS011;3104;50.348;7.620;2023-02-08T09:05:37;11.27;;;8.20;;
6145;SDS011;3104;50.348;7.620;2023-02-08T09:08:02;11.70;;;9.63;;
6145;SDS011;3104;50.348;7.620;2023-02-08T09:10:28;12.03;;;8.93;;
6145;SDS011;3104;50.348;7.620;2023-02-08T09:12:54;14.07;;;9.10;;
6145;SDS011;3104;50.348;7.620;2023-02-08T09:15:20;12.63;;;9.47;;
6145;SDS011;3104;50.348;7.620;2023-02-08T09:17:46;15.10;;;11.30;;
6145;SDS011;3104;50.348;7.620;2023-02-08T09:20:11;12.53;;;9.70;;
6145;SDS011;3104;50.348;7.620;2023-02-08T09:22:37;12.33;;;9.57;;
6145;SDS011;3104;50.348;7.620;2023-02-08T09:25:03;14.43;;;10.73;;
6145;SDS011;3104;50.348;7.620;2023-02-08T09:27:28;13.10;;;9.00;;
6145;SDS011;3104;50.348;7.620;2023-02-08T09:29:54;9.83;;;7.43;;
6145;SDS011;3104;50.348;7.620;2023-02-08T09:32:20;11.70;;;8.80;;
6145;SDS011;3104;50.348;7.620;2023-02-08T09:34:47;12.47;;;9.40;;
6145;SDS011;3104;50.348;7.620;2023-02-08T09:37:12;10.43;;;7.50;;
6145;SDS011;3104;50.348;7.620;2023-02-08T09:39:41;8.87;;;6.80;;
6145;SDS011;3104;50.348;7.620;2023-02-08T09:53:31;7.27;;;6.53;;
6145;SDS011;3104;50.348;7.620;2023-02-08T09:56:03;8.33;;;6.50;;
6145;SDS011;3104;50.348;7.620;2023-02-08T09:58:38;7.67;;;6.37;;
6145;SDS011;3104;50.348;7.620;2023-02-08T10:01:12;6.20;;;5.60;;
6145;SDS011;3104;50.348;7.620;2023-02-08T10:03:44;7.83;;;6.60;;
6145;SDS011;3104;50.348;7.620;2023-02-08T10:06:14;9.40;;;7.73;;
6145;SDS011;3104;50.348;7.620;2023-02-08T10:08:41;8.47;;;6.77;;
6145;SDS011;3104;50.348;7.620;2023-02-08T10:37:11;9.73;;;7.90;;
6145;SDS011;3104;50.348;7.620;2023-02-08T10:39:44;6.80;;;6.10;;
6145;SDS011;3104;50.348;7.620;2023-02-08T10:42:18;8.33;;;6.50;;
6145;SDS011;3104;50.348;7.620;2023-02-08T10:45:03;7.53;;;6.80;;
6145;SDS011;3104;50.348;7.620;2023-02-08T10:47:45;6.93;;;6.23;;
6145;SDS011;3104;50.348;7.620;2023-02-08T10:50:21;8.27;;;6.37;;
6145;SDS011;3104;50.348;7.620;2023-02-08T10:52:54;9.70;;;6.60;;
6145;SDS011;3104;50.348;7.620;2023-02-08T10:55:19;7.33;;;5.80;;
6145;SDS011;3104;50.348;7.620;2023-02-08T10:57:46;6.63;;;5.80;;
6145;SDS011;3104;50.348;7.620;2023-02-08T11:00:21;8.00;;;7.20;;
6145;SDS011;3104;50.348;7.620;2023-02-08T11:03:05;8.40;;;6.00;;
6145;SDS011;3104;50.348;7.620;2023-02-08T11:05:42;6.47;;;5.10;;
6145;SDS011;3104;50.348;7.620;2023-02-08T11:08:10;6.90;;;5.23;;
6145;SDS011;3104;50.348;7.620;2023-02-08T11:10:59;6.60;;;5.20;;
6145;SDS011;3104;50.348;7.620;2023-02-08T11:16:00;12.57;;;5.97;;
6145;SDS011;3104;50.348;7.620;2023-02-08T11:18:30;6.37;;;5.77;;
6145;SDS011;3104;50.348;7.620;2023-02-08T11:21:22;7.27;;;5.33;;
6145;SDS011;3104;50.348;7.620;2023-02-08T11:23:49;6.83;;;5.50;;
6145;SDS011;3104;50.348;7.620;2023-02-08T11:26:18;7.53;;;6.70;;
6145;SDS011;3104;50.348;7.620;2023-02-08T11:31:24;7.70;;;6.30;;
6145;SDS011;3104;50.348;7.620;2023-02-08T11:34:11;7.90;;;5.87;;
6145;SDS011;3104;50.348;7.620;2023-02-08T11:36:37;6.87;;;5.70;;
6145;SDS011;3104;50.348;7.620;2023-02-08T11:41:58;7.10;;;5.87;;
6145;SDS011;3104;50.348;7.620;2023-02-08T11:47:06;8.00;;;6.90;;
6145;SDS011;3104;50.348;7.620;2023-02-08T11:49:38;6.80;;;5.70;;
6145;SDS011;3104;50.348;7.620;2023-02-08T11:52:28;7.87;;;6.40;;
6145;SDS011;3104;50.348;7.620;2023-02-08T11:57:50;6.27;;;5.60;;
6145;SDS011;3104;50.348;7.620;2023-02-08T12:00:20;6.23;;;5.70;;
6145;SDS011;3104;50.348;7.620;2023-02-08T12:02:48;5.53;;;4.93;;
6145;SDS011;3104;50.348;7.620;2023-02-08T12:05:15;6.10;;;5.50;;
6145;SDS011;3104;50.348;7.620;2023-02-08T12:10:41;5.10;;;4.40;;
6145;SDS011;3104;50.348;7.620;2023-02-08T12:21:46;6.53;;;5.73;;
6145;SDS011;3104;50.348;7.620;2023-02-08T12:24:37;7.97;;;6.20;;
6145;SDS011;3104;50.348;7.620;2023-02-08T12:30:01;6.27;;;5.67;;
6145;SDS011;3104;50.348;7.620;2023-02-08T12:35:40;7.70;;;7.00;;
6145;SDS011;3104;50.348;7.620;2023-02-08T12:42:05;7.90;;;5.87;;
6145;SDS011;3104;50.348;7.620;2023-02-08T12:44:45;7.27;;;5.70;;
6145;SDS011;3104;50.348;7.620;2023-02-08T12:47:15;8.20;;;5.90;;
6145;SDS011;3104;50.348;7.620;2023-02-08T12:50:02;6.77;;;6.20;;
6145;SDS011;3104;50.348;7.620;2023-02-08T12:52:50;7.07;;;5.60;;
6145;SDS011;3104;50.348;7.620;2023-02-08T12:55:32;6.50;;;5.53;;
6145;SDS011;3104;50.348;7.620;2023-02-08T12:58:21;6.70;;;6.00;;
6145;SDS011;3104;50.348;7.620;2023-02-08T13:00:51;7.73;;;5.70;;
6145;SDS011;3104;50.348;7.620;2023-02-08T13:06:11;8.80;;;5.67;;
6145;SDS011;3104;50.348;7.620;2023-02-08T13:08:45;7.73;;;6.07;;
6145;SDS011;3104;50.348;7.620;2023-02-08T13:14:57;6.40;;;5.50;;
6145;SDS011;3104;50.348;7.620;2023-02-08T13:17:11;5.47;;;4.90;;
6145;SDS011;3104;50.348;7.620;2023-02-08T13:19:50;4.97;;;4.53;;
6145;SDS011;3104;50.348;7.620;2023-02-08T13:22:35;6.90;;;4.80;;
6145;SDS011;3104;50.348;7.620;2023-02-08T13:25:06;5.77;;;4.57;;
6145;SDS011;3104;50.348;7.620;2023-02-08T13:27:40;6.70;;;5.03;;
6145;SDS011;3104;50.348;7.620;2023-02-08T13:30:06;6.10;;;4.50;;
6145;SDS011;3104;50.348;7.620;2023-02-08T13:32:44;7.30;;;5.90;;
6145;SDS011;3104;50.348;7.620;2023-02-08T13:35:12;6.67;;;5.07;;
6145;SDS011;3104;50.348;7.620;2023-02-08T13:37:41;5.67;;;5.13;;
6145;SDS011;3104;50.348;7.620;2023-02-08T13:40:24;6.07;;;5.20;;
6145;SDS011;3104;50.348;7.620;2023-02-08T13:45:28;6.13;;;5.40;;
6145;SDS011;3104;50.348;7.620;2023-02-08T13:48:04;7.13;;;6.40;;
6145;SDS011;3104;50.348;7.620;2023-02-08T13:53:18;10.67;;;8.77;;
6145;SDS011;3104;50.348;7.620;2023-02-08T13:56:04;24.27;;;17.17;;
6145;SDS011;3104;50.348;7.620;2023-02-08T13:58:56;6.60;;;5.23;;
6145;SDS011;3104;50.348;7.620;2023-02-08T14:01:26;18.93;;;16.10;;
6145;SDS011;3104;50.348;7.620;2023-02-08T14:06:31;22.93;;;17.67;;
6145;SDS011;3104;50.348;7.620;2023-02-08T14:09:07;22.23;;;18.77;;
6145;SDS011;3104;50.348;7.620;2023-02-08T14:11:48;33.00;;;21.33;;
6145;SDS011;3104;50.348;7.620;2023-02-08T14:14:38;22.60;;;15.10;;
6145;SDS011;3104;50.348;7.620;2023-02-08T14:19:42;11.20;;;7.67;;
6145;SDS011;3104;50.348;7.620;2023-02-08T14:32:32;5.43;;;4.93;;
6145;SDS011;3104;50.348;7.620;2023-02-08T14:35:07;5.00;;;4.37;;
6145;SDS011;3104;50.348;7.620;2023-02-08T14:37:44;6.20;;;5.63;;
6145;SDS011;3104;50.348;7.620;2023-02-08T14:45:37;5.30;;;4.30;;
6145;SDS011;3104;50.348;7.620;2023-02-08T14:50:32;5.10;;;4.33;;
6145;SDS011;3104;50.348;7.620;2023-02-08T14:53:04;6.27;;;4.70;;
6145;SDS011;3104;50.348;7.620;2023-02-08T14:55:39;4.70;;;4.00;;
6145;SDS011;3104;50.348;7.620;2023-02-08T14:58:22;6.60;;;4.70;;
6145;SDS011;3104;50.348;7.620;2023-02-08T15:03:58;6.30;;;5.00;;
6145;SDS011;3104;50.348;7.620;2023-02-08T15:09:18;5.37;;;4.83;;
6145;SDS011;3104;50.348;7.620;2023-02-08T15:11:48;4.73;;;4.30;;
6145;SDS011;3104;50.348;7.620;2023-02-08T15:14:26;5.23;;;4.27;;
6145;SDS011;3104;50.348;7.620;2023-02-08T15:16:54;4.83;;;4.37;;
6145;SDS011;3104;50.348;7.620;2023-02-08T15:19:27;4.63;;;4.13;;
6145;SDS011;3104;50.348;7.620;2023-02-08T15:24:55;5.20;;;3.77;;
6145;SDS011;3104;50.348;7.620;2023-02-08T15:27:45;3.50;;;3.10;;
6145;SDS011;3104;50.348;7.620;2023-02-08T15:30:23;3.63;;;2.90;;
6145;SDS011;3104;50.348;7.620;2023-02-08T15:32:50;3.80;;;3.40;;
6145;SDS011;3104;50.348;7.620;2023-02-08T15:35:17;4.57;;;3.43;;
6145;SDS011;3104;50.348;7.620;2023-02-08T15:37:44;4.00;;;3.20;;
6145;SDS011;3104;50.348;7.620;2023-02-08T15:45:32;3.20;;;2.90;;
6145;SDS011;3104;50.348;7.620;2023-02-08T15:47:58;3.70;;;3.30;;
6145;SDS011;3104;50.348;7.620;2023-02-08T15:50:25;3.10;;;2.80;;
6145;SDS011;3104;50.348;7.620;2023-02-08T15:52:55;3.77;;;3.10;;
6145;SDS011;3104;50.348;7.620;2023-02-08T15:55:27;4.20;;;3.30;;
6145;SDS011;3104;50.348;7.620;2023-02-08T15:58:25;4.10;;;2.63;;
6145;SDS011;3104;50.348;7.620;2023-02-08T16:00:52;3.00;;;2.40;;
6145;SDS011;3104;50.348;7.620;2023-02-08T16:03:20;3.97;;;2.90;;
6145;SDS011;3104;50.348;7.620;2023-02-08T16:05:51;4.00;;;3.23;;
6145;SDS011;3104;50.348;7.620;2023-02-08T16:08:21;3.77;;;3.30;;
6145;SDS011;3104;50.348;7.620;2023-02-08T16:10:59;4.20;;;2.70;;
6145;SDS011;3104;50.348;7.620;2023-02-08T16:13:30;29.70;;;16.00;;
6145;SDS011;3104;50.348;7.620;2023-02-08T16:21:17;5.23;;;3.57;;
6145;SDS011;3104;50.348;7.620;2023-02-08T16:23:49;8.17;;;5.83;;
6145;SDS011;3104;50.348;7.620;2023-02-08T16:26:24;5.93;;;4.43;;
6145;SDS011;3104;50.348;7.620;2023-02-08T16:28:58;4.37;;;3.60;;
6145;SDS011;3104;50.348;7.620;2023-02-08T16:31:27;4.93;;;3.33;;
6145;SDS011;3104;50.348;7.620;2023-02-08T16:36:38;6.67;;;4.37;;
6145;SDS011;3104;50.348;7.620;2023-02-08T16:44:25;5.17;;;4.23;;
6145;SDS011;3104;50.348;7.620;2023-02-08T16:46:53;4.30;;;3.37;;
6145;SDS011;3104;50.348;7.620;2023-02-08T16:49:18;6.37;;;3.70;;
6145;SDS011;3104;50.348;7.620;2023-02-08T16:51:44;5.27;;;4.53;;
6145;SDS011;3104;50.348;7.620;2023-02-08T16:54:14;5.20;;;4.57;;
6145;SDS011;3104;50.348;7.620;2023-02-08T16:56:42;5.27;;;4.03;;
6145;SDS011;3104;50.348;7.620;2023-02-08T16:59:09;4.70;;;4.20;;
6145;SDS011;3104;50.348;7.620;2023-02-08T17:01:37;5.00;;;4.50;;
6145;SDS011;3104;50.348;7.620;2023-02-08T17:04:04;5.50;;;4.53;;
6145;SDS011;3104;50.348;7.620;2023-02-08T17:06:30;4.80;;;4.00;;
6145;SDS011;3104;50.348;7.620;2023-02-08T17:08:58;6.40;;;4.30;;
6145;SDS011;3104;50.348;7.620;2023-02-08T17:11:24;5.33;;;4.20;;
6145;SDS011;3104;50.348;7.620;2023-02-08T17:13:51;6.37;;;4.47;;
6145;SDS011;3104;50.348;7.620;2023-02-08T17:16:18;5.93;;;4.93;;
6145;SDS011;3104;50.348;7.620;2023-02-08T17:18:46;9.30;;;5.17;;
6145;SDS011;3104;50.348;7.620;2023-02-08T17:21:12;6.60;;;4.80;;
6145;SDS011;3104;50.348;7.620;2023-02-08T17:23:38;4.57;;;4.17;;
6145;SDS011;3104;50.348;7.620;2023-02-08T17:26:13;5.07;;;4.03;;
6145;SDS011;3104;50.348;7.620;2023-02-08T17:28:43;6.50;;;4.37;;
6145;SDS011;3104;50.348;7.620;2023-02-08T17:31:10;7.83;;;5.90;;
6145;SDS011;3104;50.348;7.620;2023-02-08T17:33:37;6.87;;;5.33;;
6145;SDS011;3104;50.348;7.620;2023-02-08T17:36:04;9.33;;;6.20;;
6145;SDS011;3104;50.348;7.620;2023-02-08T17:38:34;6.13;;;4.20;;
6145;SDS011;3104;50.348;7.620;2023-02-08T17:41:03;12.03;;;7.67;;
6145;SDS011;3104;50.348;7.620;2023-02-08T17:43:30;7.33;;;6.43;;
6145;SDS011;3104;50.348;7.620;2023-02-08T17:45:56;12.27;;;6.83;;
6145;SDS011;3104;50.348;7.620;2023-02-08T17:48:21;6.00;;;4.60;;
6145;SDS011;3104;50.348;7.620;2023-02-08T17:50:47;7.83;;;5.07;;
6145;SDS011;3104;50.348;7.620;2023-02-08T17:53:16;7.70;;;5.43;;
6145;SDS011;3104;50.348;7.620;2023-02-08T17:55:42;9.93;;;5.27;;
6145;SDS011;3104;50.348;7.620;2023-02-08T17:58:09;6.67;;;5.13;;
6145;SDS011;3104;50.348;7.620;2023-02-08T18:00:35;7.30;;;4.70;;
6145;SDS011;3104;50.348;7.620;2023-02-08T18:03:01;10.23;;;4.80;;
6145;SDS011;3104;50.348;7.620;2023-02-08T18:05:27;8.27;;;6.43;;
6145;SDS011;3104;50.348;7.620;2023-02-08T18:07:54;8.53;;;5.93;;